createdAt,value
2023-05-21T00:00:30.458Z,101512.88
2023-05-21T00:02:59.098Z,101512.78
2023-05-21T00:05:25.815Z,101521.53
2023-05-21T00:07:54.750Z,101507.75
2023-05-21T00:10:21.223Z,101510.63
2023-05-21T00:12:47.609Z,101505.63
2023-05-21T00:15:14.158Z,101509.16
2023-05-21T00:17:40.601Z,101505.53
2023-05-21T00:20:09.931Z,101498.38
2023-05-21T00:22:36.370Z,101512.78
2023-05-21T00:25:03.035Z,101508.41
2023-05-21T00:27:29.421Z,101501.13
2023-05-21T00:29:55.853Z,101501.13
2023-05-21T00:32:22.278Z,101503.28
2023-05-21T00:34:48.677Z,101501.03
2023-05-21T00:37:15.307Z,101502.53
2023-05-21T00:39:41.701Z,101501.03
2023-05-21T00:42:08.076Z,101499.53
2023-05-21T00:44:35.318Z,101501.03
2023-05-21T00:47:04.023Z,101505.31
2023-05-21T00:49:30.561Z,101494.41
2023-05-21T00:51:56.967Z,101498.03
2023-05-21T00:54:23.610Z,101486.53
2023-05-21T00:56:50.071Z,101489.41
2023-05-21T00:59:16.496Z,101490.78
2023-05-21T01:01:45.988Z,101477.03
2023-05-21T01:04:12.486Z,101485.78
2023-05-21T01:06:38.877Z,101477.81
2023-05-21T01:09:06.828Z,101477.81
2023-05-21T01:11:36.170Z,101469.16
2023-05-21T01:14:02.564Z,101475.53
2023-05-21T01:16:28.956Z,101472.03
2023-05-21T01:18:55.639Z,101464.78
2023-05-21T01:21:22.174Z,101458.28
2023-05-21T01:23:49.183Z,101456.88
2023-05-21T01:26:15.895Z,101461.28
2023-05-21T01:28:42.915Z,101462.63
2023-05-21T01:31:16.621Z,101466.28
2023-05-21T01:33:45.463Z,101465.50
2023-05-21T01:36:15.822Z,101467.66
2023-05-21T01:39:00.664Z,101470.53
2023-05-21T01:41:27.092Z,101456.78
2023-05-21T01:43:53.490Z,101460.41
2023-05-21T01:46:20.490Z,101458.91
2023-05-21T01:48:46.880Z,101456.78
2023-05-21T01:51:13.249Z,101450.28
2023-05-21T01:57:32.841Z,101444.41
2023-05-21T01:59:59.281Z,101455.91
2023-05-21T02:02:25.733Z,101457.44
2023-05-21T02:04:52.196Z,101447.28
2023-05-21T02:07:18.726Z,101452.91
2023-05-21T02:09:45.114Z,101445.81
2023-05-21T02:12:11.543Z,101455.16
2023-05-21T02:14:38.452Z,101450.03
2023-05-21T02:17:04.987Z,101447.81
2023-05-21T02:19:31.440Z,101444.28
2023-05-21T02:21:57.860Z,101447.94
2023-05-21T02:24:24.471Z,101439.94
2023-05-21T02:26:51.317Z,101435.66
2023-05-21T02:29:18.129Z,101428.31
2023-05-21T02:31:44.531Z,101435.56
2023-05-21T02:34:10.991Z,101424.06
2023-05-21T02:36:37.443Z,101434.81
2023-05-21T02:39:04.322Z,101430.44
2023-05-21T02:41:30.795Z,101428.31
2023-05-21T02:43:57.227Z,101424.69
2023-05-21T02:46:23.786Z,101423.94
2023-05-21T02:48:51.608Z,101426.81
2023-05-21T02:51:18.034Z,101421.81
2023-05-21T02:53:44.474Z,101421.06
2023-05-21T02:56:12.453Z,101420.31
2023-05-21T02:58:38.853Z,101408.06
2023-05-21T03:01:05.388Z,101408.78
2023-05-21T03:03:32.414Z,101418.19
2023-05-21T03:05:58.963Z,101421.06
2023-05-21T03:08:26.420Z,101405.91
2023-05-21T03:10:52.806Z,101418.06
2023-05-21T03:13:19.272Z,101412.31
2023-05-21T03:15:46.547Z,101408.06
2023-05-21T03:18:13.200Z,101413.81
2023-05-21T03:20:44.457Z,101410.94
2023-05-21T03:23:14.244Z,101419.56
2023-05-21T03:25:42.736Z,101422.31
2023-05-21T03:28:12.119Z,101414.47
2023-05-21T03:30:47.052Z,101414.34
2023-05-21T03:33:39.288Z,101419.56
2023-05-21T03:36:17.782Z,101413.69
2023-05-21T03:38:44.180Z,101418.06
2023-05-21T03:41:10.701Z,101415.19
2023-05-21T03:43:37.694Z,101420.22
2023-05-21T03:46:04.148Z,101420.97
2023-05-21T03:48:58.858Z,101419.56
2023-05-21T03:51:27.568Z,101413.69
2023-05-21T03:53:54.215Z,101416.56
2023-05-21T03:56:21.614Z,101411.34
2023-05-21T03:58:48.163Z,101417.97
2023-05-21T04:01:14.595Z,101415.84
2023-05-21T04:03:41.312Z,101421.59
2023-05-21T04:06:10.185Z,101432.34
2023-05-21T04:08:38.129Z,101420.09
2023-05-21T04:11:04.519Z,101423.72
2023-05-21T04:13:30.927Z,101419.34
2023-05-21T04:15:57.338Z,101426.59
2023-05-21T04:18:26.005Z,101425.09
2023-05-21T04:20:52.595Z,101424.47
2023-05-21T04:23:19.064Z,101425.09
2023-05-21T04:25:50.812Z,101417.84
2023-05-21T04:28:21.047Z,101434.38
2023-05-21T04:30:48.004Z,101427.34
2023-05-21T04:33:17.948Z,101433.84
2023-05-21T04:35:46.279Z,101435.97
2023-05-21T04:38:12.749Z,101438.13
2023-05-21T04:40:39.186Z,101436.59
2023-05-21T04:43:05.620Z,101433.84
2023-05-21T04:45:32.876Z,101430.84
2023-05-21T04:48:00.431Z,101433.84
2023-05-21T04:50:30.633Z,101429.47
2023-05-21T04:52:58.710Z,101430.09
2023-05-21T04:55:26.012Z,101436.59
2023-05-21T04:57:52.812Z,101432.34
2023-05-21T05:00:19.393Z,101439.59
2023-05-21T05:02:46.344Z,101433.09
2023-05-21T05:05:12.863Z,101430.22
2023-05-21T05:07:39.249Z,101430.84
2023-05-21T05:10:05.930Z,101436.59
2023-05-21T05:12:33.095Z,101441.00
2023-05-21T05:14:59.540Z,101427.22
2023-05-21T05:17:27.410Z,101437.38
2023-05-21T05:19:53.855Z,101437.38
2023-05-21T05:22:20.250Z,101436.59
2023-05-21T05:24:46.729Z,101437.38
2023-05-21T05:27:13.715Z,101433.72
2023-05-21T05:29:40.126Z,101448.13
2023-05-21T05:32:06.744Z,101433.63
2023-05-21T05:34:33.145Z,101436.59
2023-05-21T05:36:59.624Z,101438.00
2023-05-21T05:39:26.069Z,101440.88
2023-05-21T05:41:52.573Z,101436.59
2023-05-21T05:44:19.085Z,101444.50
2023-05-21T05:46:45.554Z,101433.72
2023-05-21T05:49:11.997Z,101436.59
2023-05-21T05:51:39.442Z,101436.59
2023-05-21T05:54:06.058Z,101436.59
2023-05-21T05:56:33.269Z,101436.59
2023-05-21T05:58:59.763Z,101442.34
2023-05-21T06:01:26.465Z,101442.34
2023-05-21T06:03:52.997Z,101430.84
2023-05-21T06:06:19.520Z,101438.00
2023-05-21T06:08:46.864Z,101440.88
2023-05-21T06:11:16.975Z,101438.00
2023-05-21T06:13:43.437Z,101439.41
2023-05-21T06:16:10.190Z,101438.75
2023-05-21T06:18:37.575Z,101435.84
2023-05-21T06:21:04.165Z,101435.13
2023-05-21T06:23:32.553Z,101434.38
2023-05-21T06:25:59.245Z,101428.63
2023-05-21T06:28:26.400Z,101420.00
2023-05-21T06:30:53.856Z,101424.34
2023-05-21T06:33:20.375Z,101435.13
2023-05-21T06:35:46.913Z,101434.38
2023-05-21T06:38:13.819Z,101427.53
2023-05-21T06:40:40.401Z,101424.91
2023-05-21T06:43:11.572Z,101424.34
2023-05-21T06:46:13.155Z,101415.09
2023-05-21T06:48:40.378Z,101421.59
2023-05-21T06:51:06.808Z,101415.59
2023-05-21T06:53:33.273Z,101426.72
2023-05-21T06:56:00.383Z,101423.28
2023-05-21T06:58:34.993Z,101428.41
2023-05-21T07:01:01.743Z,101418.38
2023-05-21T07:03:29.226Z,101414.75
2023-05-21T07:05:55.855Z,101414.03
2023-05-21T07:08:22.285Z,101415.22
2023-05-21T07:10:49.024Z,101420.25
2023-05-21T07:13:17.258Z,101421.72
2023-05-21T07:15:44.258Z,101419.91
2023-05-21T07:18:11.731Z,101420.41
2023-05-21T07:20:38.508Z,101421.94
2023-05-21T07:23:06.448Z,101418.94
2023-05-21T07:25:33.358Z,101420.31
2023-05-21T07:28:00.162Z,101411.69
2023-05-21T07:30:26.941Z,101415.97
2023-05-21T07:32:53.577Z,101407.94
2023-05-21T07:35:20.135Z,101408.72
2023-05-21T07:37:47.771Z,101413.72
2023-05-21T07:40:14.296Z,101414.47
2023-05-21T07:42:42.156Z,101414.47
2023-05-21T07:45:08.734Z,101410.09
2023-05-21T07:47:40.210Z,101407.22
2023-05-21T07:50:06.792Z,101407.94
2023-05-21T07:52:33.251Z,101409.22
2023-05-21T07:55:01.222Z,101408.59
2023-05-21T07:57:30.337Z,101408.59
2023-05-21T08:00:00.249Z,101408.91
2023-05-21T08:02:28.594Z,101403.81
2023-05-21T08:04:55.198Z,101401.91
2023-05-21T08:07:21.940Z,101388.66
2023-05-21T08:09:48.391Z,101400.50
2023-05-21T08:12:15.924Z,101389.72
2023-05-21T08:14:43.389Z,101395.59
2023-05-21T08:17:11.507Z,101391.84
2023-05-21T08:19:38.202Z,101390.56
2023-05-21T08:22:06.471Z,101394.97
2023-05-21T08:24:34.109Z,101394.31
2023-05-21T08:27:01.399Z,101397.72
2023-05-21T08:29:29.949Z,101392.06
2023-05-21T08:31:56.432Z,101393.78
2023-05-21T08:34:23.178Z,101389.53
2023-05-21T08:37:00.696Z,101395.91
2023-05-21T08:40:06.308Z,101388.22
2023-05-21T08:42:42.465Z,101392.50
2023-05-21T08:45:14.610Z,101394.50
2023-05-21T08:47:42.049Z,101393.03
2023-05-21T08:50:13.207Z,101397.31
2023-05-21T08:52:39.843Z,101396.53
2023-05-21T08:55:06.845Z,101394.44
2023-05-21T08:57:33.733Z,101403.06
2023-05-21T09:00:01.800Z,101390.78
2023-05-21T09:02:30.224Z,101403.81
2023-05-21T09:04:57.332Z,101395.16
2023-05-21T09:07:24.651Z,101395.16
2023-05-21T09:10:19.202Z,101393.78
2023-05-21T09:12:45.737Z,101395.28
2023-05-21T09:15:12.204Z,101382.25
2023-05-21T09:17:38.927Z,101393.78
2023-05-21T09:20:24.352Z,101392.41
2023-05-21T09:22:55.643Z,101389.53
2023-05-21T09:25:23.303Z,101380.13
2023-05-21T09:27:49.963Z,101374.34
2023-05-21T09:30:18.110Z,101373.00
2023-05-21T09:32:44.842Z,101378.13
2023-05-21T09:35:12.495Z,101371.59
2023-05-21T09:37:39.449Z,101370.97
2023-05-21T09:40:12.226Z,101370.22
2023-05-21T09:42:48.346Z,101370.31
2023-05-21T09:45:18.378Z,101378.19
2023-05-21T09:47:44.855Z,101367.44
2023-05-21T09:50:11.784Z,101363.78
2023-05-21T09:52:40.727Z,101367.56
2023-05-21T09:55:14.251Z,101364.69
2023-05-21T09:57:43.879Z,101364.69
2023-05-21T10:00:17.809Z,101365.41
2023-05-21T10:02:47.849Z,101354.63
2023-05-21T10:05:14.877Z,101367.63
2023-05-21T10:07:41.973Z,101348.25
2023-05-21T10:10:08.664Z,101351.84
2023-05-21T10:12:35.051Z,101348.34
2023-05-21T10:15:03.483Z,101349.81
2023-05-21T10:17:29.994Z,101330.31
2023-05-21T10:19:56.539Z,101345.47
2023-05-21T10:22:24.200Z,101336.84
2023-05-21T10:24:50.642Z,101338.31
2023-05-21T10:27:17.028Z,101341.28
2023-05-21T10:29:43.689Z,101345.53
2023-05-21T10:32:10.899Z,101328.28
2023-05-21T10:34:37.390Z,101320.41
2023-05-21T10:37:03.790Z,101328.28
2023-05-21T10:39:30.271Z,101322.50
2023-05-21T10:42:03.658Z,101325.50
2023-05-21T10:44:33.940Z,101308.22
2023-05-21T10:47:04.299Z,101322.63
2023-05-21T10:49:30.631Z,101308.97
2023-05-21T10:52:01.263Z,101305.22
2023-05-21T10:54:33.345Z,101308.44
2023-05-21T10:56:59.668Z,101305.97
2023-05-21T10:59:36.538Z,101305.97
2023-05-21T11:02:02.992Z,101310.31
2023-05-21T11:04:29.437Z,101303.81
2023-05-21T11:06:56.475Z,101299.53
2023-05-21T11:09:22.857Z,101295.19
2023-05-21T11:11:52.596Z,101297.31
2023-05-21T11:14:28.484Z,101296.75
2023-05-21T11:16:55.012Z,101296.03
2023-05-21T11:19:21.529Z,101298.25
2023-05-21T11:21:51.350Z,101300.38
2023-05-21T11:24:20.914Z,101291.84
2023-05-21T11:26:55.173Z,101302.00
2023-05-21T11:29:21.562Z,101292.91
2023-05-21T11:31:48.464Z,101299.38
2023-05-21T11:34:14.988Z,101290.38
2023-05-21T11:36:42.250Z,101286.69
2023-05-21T11:39:12.170Z,101281.13
2023-05-21T11:41:54.039Z,101279.81
2023-05-21T11:44:39.949Z,101285.13
2023-05-21T11:47:06.692Z,101284.53
2023-05-21T11:49:33.217Z,101279.28
2023-05-21T11:51:59.850Z,101286.53
2023-05-21T11:54:26.722Z,101287.19
2023-05-21T11:56:53.695Z,101299.72
2023-05-21T11:59:20.126Z,101289.75
2023-05-21T12:01:46.553Z,101296.53
2023-05-21T12:04:13.428Z,101292.66
2023-05-21T12:06:42.647Z,101292.44
2023-05-21T12:09:12.077Z,101301.00
2023-05-21T12:11:39.900Z,101288.91
2023-05-21T12:14:12.502Z,101284.44
2023-05-21T12:16:39.108Z,101287.97
2023-05-21T12:19:05.943Z,101285.19
2023-05-21T12:21:32.578Z,101285.09
2023-05-21T12:23:58.986Z,101274.97
2023-05-21T12:26:25.577Z,101277.84
2023-05-21T12:28:55.013Z,101279.22
2023-05-21T12:31:24.732Z,101277.75
2023-05-21T12:33:51.150Z,101275.59
2023-05-21T12:36:26.972Z,101271.97
2023-05-21T12:38:53.475Z,101275.50
2023-05-21T12:41:19.876Z,101269.00
2023-05-21T12:43:46.556Z,101271.25
2023-05-21T12:46:14.829Z,101279.06
2023-05-21T12:48:42.631Z,101264.75
2023-05-21T12:51:09.027Z,101270.41
2023-05-21T12:53:38.490Z,101267.53
2023-05-21T12:56:09.154Z,101266.00
2023-05-21T12:58:35.596Z,101264.53
2023-05-21T13:01:03.928Z,101274.56
2023-05-21T13:03:32.147Z,101276.25
2023-05-21T13:06:01.863Z,101270.50
2023-05-21T13:08:28.567Z,101268.16
2023-05-21T13:10:55.030Z,101264.63
2023-05-21T13:13:21.426Z,101256.09
2023-05-21T13:15:47.857Z,101258.22
2023-05-21T13:18:15.739Z,101258.97
2023-05-21T13:20:42.208Z,101261.19
2023-05-21T13:23:11.282Z,101251.69
2023-05-21T13:25:38.186Z,101248.72
2023-05-21T13:28:05.160Z,101256.09
2023-05-21T13:30:33.292Z,101254.59
2023-05-21T13:32:59.754Z,101254.69
2023-05-21T13:35:26.359Z,101235.91
2023-05-21T13:37:52.785Z,101246.78
2023-05-21T13:40:19.251Z,101250.78
2023-05-21T13:42:46.259Z,101245.97
2023-05-21T13:45:13.670Z,101244.13
2023-05-21T13:47:40.661Z,101248.81
2023-05-21T13:50:07.709Z,101241.19
2023-05-21T13:52:34.211Z,101238.41
2023-05-21T13:55:00.593Z,101233.78
2023-05-21T13:57:27.242Z,101230.88
2023-05-21T13:59:53.760Z,101224.47
2023-05-21T14:02:20.190Z,101229.41
2023-05-21T14:04:46.600Z,101228.91
2023-05-21T14:07:13.064Z,101226.66
2023-05-21T14:09:39.589Z,101229.03
2023-05-21T14:12:06.786Z,101225.66
2023-05-21T14:14:33.370Z,101240.72
2023-05-21T14:16:59.810Z,101232.16
2023-05-21T14:19:26.452Z,101233.06
2023-05-21T14:21:52.939Z,101236.59
2023-05-21T14:24:19.447Z,101240.91
2023-05-21T14:26:45.826Z,101235.13
2023-05-21T14:29:12.222Z,101231.53
2023-05-21T14:31:38.669Z,101231.09
2023-05-21T14:34:06.889Z,101236.69
2023-05-21T14:36:33.305Z,101236.06
2023-05-21T14:38:59.734Z,101236.59
2023-05-21T14:41:29.109Z,101236.75
2023-05-21T14:43:55.508Z,101231.56
2023-05-21T14:46:21.968Z,101225.75
2023-05-21T14:48:48.430Z,101236.06
2023-05-21T14:51:14.812Z,101243.72
2023-05-21T14:53:41.222Z,101237.09
2023-05-21T14:56:07.609Z,101228.41
2023-05-21T14:58:34.055Z,101238.13
2023-05-21T15:01:00.673Z,101237.94
2023-05-21T15:03:27.370Z,101231.34
2023-05-21T15:05:54.142Z,101228.94
2023-05-21T15:08:20.651Z,101237.38
2023-05-21T15:10:47.034Z,101235.41
2023-05-21T15:13:13.442Z,101223.28
2023-05-21T15:15:40.215Z,101232.13
2023-05-21T15:18:06.872Z,101232.69
2023-05-21T15:20:33.417Z,101227.00
2023-05-21T15:23:15.388Z,101224.09
2023-05-21T15:25:43.504Z,101229.78
2023-05-21T15:28:10.039Z,101226.16
2023-05-21T15:30:36.431Z,101223.78
2023-05-21T15:33:03.069Z,101229.38
2023-05-21T15:35:29.775Z,101227.03
2023-05-21T15:37:56.283Z,101228.44
2023-05-21T15:40:24.372Z,101226.22
2023-05-21T15:42:51.912Z,101215.97
2023-05-21T15:45:18.315Z,101215.97
2023-05-21T15:47:44.757Z,101214.50
2023-05-21T15:50:12.071Z,101218.78
2023-05-21T15:52:38.477Z,101222.41
2023-05-21T15:55:04.967Z,101223.06
2023-05-21T15:57:31.456Z,101217.31
2023-05-21T15:59:57.925Z,101215.81
2023-05-21T16:02:24.475Z,101221.66
2023-05-21T16:04:51.985Z,101211.63
2023-05-21T16:07:18.744Z,101218.88
2023-05-21T16:09:45.182Z,101216.53
2023-05-21T16:12:11.582Z,101206.50
2023-05-21T16:14:37.974Z,101222.31
2023-05-21T16:17:04.441Z,101206.50
2023-05-21T16:19:31.114Z,101207.06
2023-05-21T16:21:57.599Z,101198.31
2023-05-21T16:24:23.990Z,101201.28
2023-05-21T16:26:50.451Z,101208.47
2023-05-21T16:29:16.857Z,101209.94
2023-05-21T16:31:43.311Z,101201.28
2023-05-21T16:34:09.732Z,101197.03
2023-05-21T16:36:38.225Z,101203.53
2023-05-21T16:39:04.633Z,101202.69
2023-05-21T16:41:31.134Z,101204.16
2023-05-21T16:43:57.525Z,101193.31
2023-05-21T16:46:24.000Z,101206.97
2023-05-21T16:48:50.629Z,101197.56
2023-05-21T16:51:16.997Z,101196.09
2023-05-21T16:53:43.406Z,101198.25
2023-05-21T16:56:09.782Z,101206.81
2023-05-21T16:58:36.162Z,101203.16
2023-05-21T17:01:02.570Z,101205.41
2023-05-21T17:03:29.661Z,101209.84
2023-05-21T17:05:56.102Z,101199.53
2023-05-21T17:08:22.487Z,101209.78
2023-05-21T17:10:48.878Z,101208.94
2023-05-21T17:13:22.127Z,101203.16
2023-05-21T17:15:50.574Z,101212.38
2023-05-21T17:18:17.084Z,101216.75
2023-05-21T17:20:43.749Z,101219.63
2023-05-21T17:23:10.862Z,101210.97
2023-05-21T17:25:37.473Z,101218.03
2023-05-21T17:28:03.955Z,101208.00
2023-05-21T17:30:30.395Z,101214.53
2023-05-21T17:32:58.181Z,101212.28
2023-05-21T17:35:24.672Z,101203.75
2023-05-21T17:37:53.204Z,101208.09
2023-05-21T17:40:21.308Z,101208.00
2023-05-21T17:42:47.782Z,101209.50
2023-05-21T17:45:14.223Z,101209.59
2023-05-21T17:47:40.655Z,101203.00
2023-05-21T17:50:07.424Z,101208.00
2023-05-21T17:52:33.805Z,101222.44
2023-05-21T17:55:00.949Z,101214.41
2023-05-21T17:57:27.320Z,101214.69
2023-05-21T17:59:55.100Z,101231.25
2023-05-21T18:02:23.382Z,101223.34
2023-05-21T18:04:49.815Z,101222.53
2023-05-21T18:07:16.220Z,101225.50
2023-05-21T18:09:42.845Z,101222.63
2023-05-21T18:12:09.223Z,101226.91
2023-05-21T18:14:35.601Z,101224.03
2023-05-21T18:17:02.153Z,101232.00
2023-05-21T18:19:28.742Z,101229.13
2023-05-21T18:21:55.297Z,101234.25
2023-05-21T18:24:21.682Z,101231.25
2023-05-21T18:26:48.541Z,101235.56
2023-05-21T18:29:15.050Z,101237.78
2023-05-21T18:31:42.926Z,101239.81
2023-05-21T18:34:09.495Z,101221.03
2023-05-21T18:36:38.692Z,101242.53
2023-05-21T18:39:08.674Z,101229.78
2023-05-21T18:41:35.086Z,101240.38
2023-05-21T18:44:01.849Z,101236.47
2023-05-21T18:46:28.674Z,101247.66
2023-05-21T18:48:55.946Z,101246.88
2023-05-21T18:51:22.363Z,101241.13
2023-05-21T18:53:48.772Z,101241.13
2023-05-21T18:56:15.226Z,101236.09
2023-05-21T18:58:41.661Z,101240.38
2023-05-21T19:01:08.117Z,101244.66
2023-05-21T19:03:34.498Z,101241.88
2023-05-21T19:06:00.901Z,101251.91
2023-05-21T19:08:27.289Z,101252.56
2023-05-21T19:10:53.687Z,101256.19
2023-05-21T19:13:20.070Z,101256.94
2023-05-21T19:15:48.368Z,101255.44
2023-05-21T19:18:14.797Z,101268.38
2023-05-21T19:20:41.181Z,101266.88
2023-05-21T19:23:07.617Z,101276.19
2023-05-21T19:25:34.029Z,101276.94
2023-05-21T19:28:00.851Z,101280.56
2023-05-21T19:30:27.532Z,101279.84
2023-05-21T19:32:53.956Z,101286.97
2023-05-21T19:35:20.503Z,101289.88
2023-05-21T19:37:46.917Z,101289.88
2023-05-21T19:40:13.336Z,101289.88
2023-05-21T19:42:39.725Z,101296.38
2023-05-21T19:45:09.393Z,101294.91
2023-05-21T19:47:36.251Z,101289.88
2023-05-21T19:50:03.153Z,101284.09
2023-05-21T19:52:29.601Z,101289.88
2023-05-21T19:55:04.293Z,101292.66
2023-05-21T19:57:31.490Z,101294.16
2023-05-21T19:59:58.481Z,101292.66
2023-05-21T20:02:25.110Z,101290.53
2023-05-21T20:04:51.651Z,101287.66
2023-05-21T20:07:18.042Z,101292.66
2023-05-21T20:09:44.434Z,101286.88
2023-05-21T20:12:10.991Z,101286.16
2023-05-21T20:14:37.375Z,101287.56
2023-05-21T20:17:05.715Z,101292.56
2023-05-21T20:19:32.610Z,101298.31
2023-05-21T20:21:59.226Z,101289.66
2023-05-21T20:24:25.608Z,101290.44
2023-05-21T20:26:52.102Z,101290.44
2023-05-21T20:29:18.489Z,101283.16
2023-05-21T20:31:44.933Z,101290.44
2023-05-21T20:34:12.178Z,101283.84
2023-05-21T20:36:40.331Z,101288.19
2023-05-21T20:39:07.453Z,101281.69
2023-05-21T20:41:37.528Z,101286.72
2023-05-21T20:44:07.120Z,101289.59
2023-05-21T20:46:34.214Z,101291.09
2023-05-21T20:49:00.723Z,101293.97
2023-05-21T20:51:27.280Z,101297.50
2023-05-21T20:53:53.658Z,101292.50
2023-05-21T20:56:29.846Z,101295.38
2023-05-21T20:59:07.998Z,101295.28
2023-05-21T21:01:37.791Z,101298.25
2023-05-21T21:04:04.872Z,101304.03
2023-05-21T21:06:31.710Z,101308.28
2023-05-21T21:08:58.278Z,101314.06
2023-05-21T21:11:24.710Z,101309.78
2023-05-21T21:13:51.842Z,101306.91
2023-05-21T21:16:18.383Z,101314.06
2023-05-21T21:18:46.385Z,101312.59
2023-05-21T21:21:12.826Z,101312.59
2023-05-21T21:23:39.237Z,101306.81
2023-05-21T21:26:05.615Z,101311.06
2023-05-21T21:28:32.003Z,101307.44
2023-05-21T21:30:58.380Z,101312.59
2023-05-21T21:33:26.528Z,101311.06
2023-05-21T21:35:53.094Z,101307.44
2023-05-21T21:38:19.500Z,101311.81
2023-05-21T21:40:45.897Z,101306.81
2023-05-21T21:43:12.294Z,101309.69
2023-05-21T21:45:38.743Z,101311.06
2023-05-21T21:48:05.248Z,101311.81
2023-05-21T21:50:31.717Z,101313.97
2023-05-21T21:52:58.111Z,101316.09
2023-05-21T21:55:24.544Z,101309.59
2023-05-21T21:57:51.224Z,101315.38
2023-05-21T22:00:17.679Z,101308.19
2023-05-21T22:02:44.139Z,101316.09
2023-05-21T22:05:10.615Z,101308.09
2023-05-21T22:07:38.624Z,101308.09
2023-05-21T22:10:05.641Z,101310.34
2023-05-21T22:12:33.666Z,101310.25
2023-05-21T22:15:04.969Z,101301.59
2023-05-21T22:17:32.786Z,101308.84
2023-05-21T22:19:59.513Z,101310.97
2023-05-21T22:22:26.022Z,101313.84
2023-05-21T22:24:52.717Z,101312.38
2023-05-21T22:27:19.120Z,101312.38
2023-05-21T22:29:45.646Z,101318.88
2023-05-21T22:32:12.232Z,101306.63
2023-05-21T22:34:38.621Z,101306.63
2023-05-21T22:37:05.029Z,101316.75
2023-05-21T22:39:31.405Z,101310.88
2023-05-21T22:41:57.799Z,101314.53
2023-05-21T22:44:24.184Z,101312.38
2023-05-21T22:46:51.905Z,101317.41
2023-05-21T22:49:19.761Z,101323.19
2023-05-21T22:51:46.380Z,101325.97
2023-05-21T22:54:12.782Z,101320.94
2023-05-21T22:56:39.177Z,101309.41
2023-05-21T22:59:05.595Z,101310.81
2023-05-21T23:01:32.081Z,101315.16
2023-05-21T23:03:58.531Z,101313.69
2023-05-21T23:06:24.914Z,101305.03
2023-05-21T23:08:51.302Z,101316.56
2023-05-21T23:11:17.713Z,101319.47
2023-05-21T23:13:44.116Z,101309.31
2023-05-21T23:16:10.572Z,101312.19
2023-05-21T23:18:37.002Z,101309.31
2023-05-21T23:21:03.437Z,101303.53
2023-05-21T23:23:30.439Z,101312.19
2023-05-21T23:25:58.797Z,101300.66
2023-05-21T23:28:25.406Z,101304.94
2023-05-21T23:30:51.837Z,101300.66
2023-05-21T23:33:18.239Z,101293.41
2023-05-21T23:35:44.664Z,101304.94
2023-05-21T23:38:11.050Z,101294.16
2023-05-21T23:40:37.638Z,101290.53
2023-05-21T23:43:04.660Z,101289.75
2023-05-21T23:45:31.194Z,101290.53
2023-05-21T23:47:57.664Z,101293.41
2023-05-21T23:50:24.102Z,101292.66
2023-05-21T23:52:50.573Z,101295.53
2023-05-21T23:55:16.967Z,101296.28
2023-05-21T23:57:43.536Z,101298.41
